Time;durP1;ratioP1;P1;durP2;ratioP2;P2;SDS_P1;SDS_P2;PMS_P1;PMS_P2;Temp;Humidity;BMP_temperature;BMP_pressure;BME280_temperature;BME280_humidity;BME280_pressure;Samples;Min_cycle;Max_cycle;Signal;HPM_P1;HPM_P2
2021/05/27 00:01:50;;;;;;;3.43;0.97;;;15.30;88.90;23.00;99423.00;;;;5070684;28;20205;-73
2021/05/27 00:04:16;;;;;;;3.30;1.10;;;15.30;89.00;23.00;99430.00;;;;5070151;28;20177;-73
2021/05/27 00:06:42;;;;;;;3.53;1.30;;;15.30;89.00;23.00;99421.00;;;;5069085;28;20568;-73
2021/05/27 00:09:08;;;;;;;3.60;1.40;;;15.30;89.00;22.90;99428.00;;;;5069179;28;20177;-73
2021/05/27 00:11:33;;;;;;;3.40;1.30;;;15.30;89.80;23.00;99427.00;;;;5051958;28;20312;-73
2021/05/27 00:13:59;;;;;;;3.20;1.07;;;15.30;89.00;23.00;99430.00;;;;5069262;28;20205;-73
2021/05/27 00:16:25;;;;;;;3.10;0.87;;;15.30;89.00;23.00;99423.00;;;;5069808;28;20200;-73
2021/05/27 00:18:53;;;;;;;3.50;1.27;;;15.20;89.70;23.00;99433.00;;;;5035312;28;20185;-73
2021/05/27 00:21:22;;;;;;;3.40;1.13;;;15.20;88.90;23.00;99436.00;;;;5068875;28;20208;-73
2021/05/27 00:23:48;;;;;;;2.90;0.80;;;15.20;89.00;23.00;99428.00;;;;5069062;28;20439;-73
2021/05/27 00:26:13;;;;;;;3.80;1.20;;;15.30;89.10;23.00;99429.00;;;;5018660;28;20546;-73
2021/05/27 00:28:39;;;;;;;3.10;0.90;;;15.20;89.00;23.10;99431.00;;;;5035949;28;20189;-73
2021/05/27 00:31:05;;;;;;;3.53;1.07;;;15.20;89.00;23.00;99427.00;;;;5068618;28;20201;-73
2021/05/27 00:33:31;;;;;;;3.07;0.93;;;15.20;89.10;23.00;99446.00;;;;5069480;28;20216;-73
2021/05/27 00:35:57;;;;;;;3.40;1.23;;;15.20;89.10;23.00;99448.00;;;;5052202;28;20467;-73
2021/05/27 00:38:23;;;;;;;3.20;0.90;;;15.20;89.10;22.90;99436.00;;;;5051936;28;20435;-73
2021/05/27 00:40:48;;;;;;;3.10;0.97;;;15.20;89.10;23.00;99457.00;;;;5068079;28;20262;-73
2021/05/27 00:43:14;;;;;;;3.30;0.90;;;15.20;89.10;22.90;99448.00;;;;5051999;28;20442;-74
2021/05/27 00:45:40;;;;;;;3.00;0.93;;;15.20;89.10;23.00;99443.00;;;;5068619;28;20227;-73
2021/05/27 00:48:06;;;;;;;3.27;0.97;;;15.20;89.20;22.90;99443.00;;;;5051979;28;20250;-73
2021/05/27 00:50:32;;;;;;;3.00;0.90;;;15.20;89.20;22.90;99454.00;;;;5052094;28;20205;-73
2021/05/27 00:52:57;;;;;;;3.00;0.90;;;15.20;89.20;22.90;99450.00;;;;5052135;28;20988;-73
2021/05/27 00:55:28;;;;;;;3.20;1.07;;;15.20;89.20;22.80;99457.00;;;;5034640;28;20817;-74
2021/05/27 00:57:54;;;;;;;3.40;1.10;;;15.20;89.20;22.90;99457.00;;;;5069034;28;20185;-75
2021/05/27 01:00:25;;;;;;;3.17;1.07;;;15.20;89.20;23.00;99460.00;;;;5034742;28;20456;-74
2021/05/27 01:02:51;;;;;;;3.30;1.07;;;15.20;89.20;22.90;99455.00;;;;5068698;28;20435;-75
2021/05/27 01:05:17;;;;;;;3.70;1.37;;;15.20;89.20;22.80;99457.00;;;;5051655;28;20479;-75
2021/05/27 01:07:43;;;;;;;3.37;1.10;;;15.20;89.20;22.80;99460.00;;;;5051315;28;20534;-74
2021/05/27 01:10:11;;;;;;;3.00;0.93;;;15.20;89.20;22.80;99449.00;;;;5034741;28;20467;-75
2021/05/27 01:12:37;;;;;;;3.00;0.87;;;15.20;89.30;22.80;99452.00;;;;5068311;28;20439;-75
2021/05/27 01:17:49;;;;;;;3.60;1.10;;;15.20;89.30;22.80;99450.00;;;;5054708;28;20437;-74
2021/05/27 01:20:15;;;;;;;3.20;1.00;;;15.20;89.30;23.00;99464.00;;;;5035027;28;20463;-73
2021/05/27 01:22:41;;;;;;;3.27;1.07;;;15.20;90.10;23.00;99463.00;;;;5050453;28;20185;-73
2021/05/27 01:25:08;;;;;;;3.20;1.10;;;15.20;89.40;22.90;99460.00;;;;5068576;28;20302;-74
2021/05/27 01:27:34;;;;;;;3.70;1.20;;;15.20;89.30;23.00;99470.00;;;;5069825;28;20187;-74
2021/05/27 01:30:00;;;;;;;3.20;1.13;;;15.20;89.40;22.90;99461.00;;;;5071981;28;20515;-74
2021/05/27 01:32:25;;;;;;;3.30;1.00;;;15.20;89.40;22.80;99457.00;;;;5072102;28;20944;-74
2021/05/27 01:34:51;;;;;;;3.10;0.80;;;15.20;89.40;23.00;99452.00;;;;5055406;28;20259;-75
2021/05/27 01:37:17;;;;;;;3.33;1.17;;;15.20;89.40;22.80;99453.00;;;;5021961;28;20188;-74
2021/05/27 01:39:46;;;;;;;3.20;1.03;;;15.10;89.30;22.80;99464.00;;;;5072142;28;20277;-74
2021/05/27 01:42:12;;;;;;;3.20;1.13;;;15.20;90.00;22.80;99464.00;;;;5055069;28;20188;-75
2021/05/27 01:44:39;;;;;;;3.17;0.80;;;15.10;89.40;23.00;99471.00;;;;5073231;28;20518;-75
2021/05/27 01:47:05;;;;;;;3.33;1.00;;;15.20;89.50;22.90;99464.00;;;;5055406;28;20991;-75
2021/05/27 01:49:31;;;;;;;3.20;0.90;;;15.10;89.40;22.90;99473.00;;;;5071147;28;20479;-75
2021/05/27 01:51:56;;;;;;;3.17;1.00;;;15.20;89.50;22.90;99466.00;;;;5071797;28;20292;-75
2021/05/27 01:54:22;;;;;;;4.23;1.10;;;15.10;89.40;22.70;99468.00;;;;5071603;28;20208;-75
2021/05/27 01:56:48;;;;;;;3.30;1.07;;;15.10;89.40;22.80;99460.00;;;;5071139;28;20743;-75
2021/05/27 01:59:14;;;;;;;3.00;0.93;;;15.10;89.40;22.80;99467.00;;;;5055195;28;20185;-75
2021/05/27 02:01:39;;;;;;;2.90;0.80;;;15.10;89.40;22.70;99474.00;;;;5037850;28;20220;-75
2021/05/27 02:04:05;;;;;;;3.07;0.90;;;15.10;89.40;22.80;99468.00;;;;5071534;28;20230;-75
2021/05/27 02:06:31;;;;;;;3.50;1.00;;;15.10;89.50;22.90;99454.00;;;;5038475;28;20718;-75
2021/05/27 02:09:09;;;;;;;3.53;1.23;;;15.10;89.50;22.80;99468.00;;;;5054956;28;20188;-75
2021/05/27 02:11:47;;;;;;;3.10;1.00;;;15.10;89.50;22.80;99436.00;;;;5041148;28;20458;-75
2021/05/27 02:14:14;;;;;;;3.33;1.00;;;15.10;89.50;22.70;99466.00;;;;5055512;28;20480;-75
2021/05/27 02:16:42;;;;;;;3.13;1.00;;;15.10;89.50;22.80;99462.00;;;;5055155;28;20512;-75
2021/05/27 02:19:08;;;;;;;3.10;1.00;;;15.10;89.60;22.70;99468.00;;;;5054552;28;20440;-75
2021/05/27 02:21:34;;;;;;;3.97;1.00;;;15.10;89.50;22.80;99468.00;;;;5054745;28;20498;-76
2021/05/27 02:24:00;;;;;;;3.30;1.10;;;15.10;89.50;22.80;99471.00;;;;5054743;28;20461;-76
2021/05/27 02:26:27;;;;;;;3.20;1.00;;;15.10;89.60;22.80;99468.00;;;;5036972;28;20451;-75
2021/05/27 02:28:53;;;;;;;3.17;1.10;;;15.10;89.60;22.70;99458.00;;;;5071002;28;20552;-75
2021/05/27 02:31:19;;;;;;;3.57;1.00;;;15.10;89.60;22.70;99470.00;;;;5038101;28;20512;-75
2021/05/27 02:33:45;;;;;;;3.30;1.10;;;15.10;89.60;22.70;99462.00;;;;5053951;28;20452;-76
2021/05/27 02:36:11;;;;;;;3.00;0.80;;;15.10;89.60;22.70;99437.00;;;;5037761;28;20456;-75
2021/05/27 02:38:37;;;;;;;3.17;1.10;;;15.10;89.60;22.70;99458.00;;;;5070486;28;20173;-75
2021/05/27 02:41:04;;;;;;;3.20;1.00;;;15.10;89.60;22.70;99461.00;;;;5037123;28;20575;-75
2021/05/27 02:43:30;;;;;;;3.10;0.93;;;15.10;89.60;22.70;99472.00;;;;5054461;28;20432;-75
2021/05/27 02:45:56;;;;;;;3.10;0.90;;;15.10;89.60;22.80;99473.00;;;;5071949;28;20447;-75
2021/05/27 02:48:22;;;;;;;3.10;0.80;;;15.10;89.60;22.50;99478.00;;;;5070546;28;20433;-75
2021/05/27 02:50:48;;;;;;;3.20;1.10;;;15.10;89.60;22.70;99479.00;;;;5054380;28;20277;-75
2021/05/27 02:53:14;;;;;;;3.13;1.00;;;15.10;89.70;22.60;99483.00;;;;5071304;28;20562;-75
2021/05/27 02:55:39;;;;;;;3.20;0.80;;;15.10;89.70;22.70;99468.00;;;;5053904;28;20459;-75
2021/05/27 02:58:05;;;;;;;3.10;0.90;;;15.10;89.70;22.70;99471.00;;;;5037520;28;20520;-76
2021/05/27 03:00:31;;;;;;;3.10;0.87;;;15.10;89.70;22.60;99476.00;;;;5053532;28;20258;-75
2021/05/27 03:02:57;;;;;;;3.10;0.90;;;15.10;89.70;22.70;99473.00;;;;5071861;28;20450;-76
2021/05/27 03:05:23;;;;;;;3.30;1.00;;;15.10;89.70;22.60;99478.00;;;;5053388;28;20355;-76
2021/05/27 03:07:48;;;;;;;3.23;1.00;;;15.10;89.80;22.60;99468.00;;;;5070147;28;20447;-75
2021/05/27 03:10:14;;;;;;;3.23;0.87;;;15.10;89.80;22.60;99475.00;;;;5070412;28;20207;-76
2021/05/27 03:12:40;;;;;;;3.60;1.20;;;15.10;89.80;22.70;99434.00;;;;5053913;28;20177;-76
2021/05/27 03:15:07;;;;;;;3.27;1.10;;;15.10;89.80;22.60;99469.00;;;;5053061;28;20494;-76
2021/05/27 03:17:33;;;;;;;3.90;1.20;;;15.10;89.80;22.60;99472.00;;;;5037305;28;20177;-76
2021/05/27 03:19:58;;;;;;;3.10;0.90;;;15.10;89.80;22.50;99473.00;;;;5053480;28;20829;-76
2021/05/27 03:22:24;;;;;;;3.10;0.93;;;15.10;89.80;22.70;99473.00;;;;5071016;28;20515;-76
2021/05/27 03:24:50;;;;;;;3.13;1.00;;;15.10;89.80;22.60;99475.00;;;;5036796;28;20177;-76
2021/05/27 03:27:16;;;;;;;3.10;0.90;;;15.10;89.90;22.60;99468.00;;;;5053769;28;20178;-76
2021/05/27 03:29:41;;;;;;;3.00;0.90;;;15.10;89.80;22.60;99477.00;;;;5069517;28;20189;-77
2021/05/27 03:32:07;;;;;;;4.10;1.20;;;15.10;89.90;22.60;99496.00;;;;5036838;28;20547;-76
2021/05/27 03:34:33;;;;;;;3.20;0.90;;;15.10;89.90;22.50;99476.00;;;;5071290;28;20221;-77
2021/05/27 03:36:59;;;;;;;3.20;1.07;;;15.00;89.80;22.50;99470.00;;;;5052743;28;20198;-76
2021/05/27 03:39:24;;;;;;;3.00;0.80;;;15.10;89.90;22.80;99481.00;;;;5053228;28;20647;-76
2021/05/27 03:41:50;;;;;;;3.20;1.00;;;15.10;89.90;22.60;99484.00;;;;5053171;28;20197;-77
2021/05/27 03:44:16;;;;;;;3.10;1.07;;;15.10;89.90;22.70;99484.00;;;;5052455;28;20260;-76
2021/05/27 03:46:42;;;;;;;3.20;1.00;;;15.10;89.90;22.50;99474.00;;;;5053223;28;20557;-76
2021/05/27 03:49:08;;;;;;;3.50;1.00;;;15.00;89.90;22.80;99473.00;;;;5052496;28;20257;-76
2021/05/27 03:51:33;;;;;;;3.10;0.93;;;15.00;89.80;22.80;99484.00;;;;5035515;28;20460;-75
2021/05/27 03:53:59;;;;;;;3.30;1.03;;;15.10;89.90;22.60;99486.00;;;;5052895;28;20223;-76
2021/05/27 03:56:26;;;;;;;3.50;1.10;;;15.10;89.90;22.80;99477.00;;;;5069968;28;20208;-76
2021/05/27 04:01:37;;;;;;;3.13;1.00;;;15.10;90.00;22.70;99464.00;;;;5069810;28;20458;-76
2021/05/27 04:09:31;;;;;;;3.50;1.10;;;15.10;90.00;22.80;99467.00;;;;5041726;28;20443;-76
2021/05/27 04:14:41;;;;;;;3.40;1.13;;;15.00;89.90;22.70;99468.00;;;;5055628;28;20252;-76
2021/05/27 04:17:07;;;;;;;3.10;1.00;;;15.00;89.90;22.60;99468.00;;;;5052990;28;20742;-76
2021/05/27 04:19:33;;;;;;;3.10;1.00;;;15.00;89.90;22.60;99470.00;;;;5019328;28;20646;-74
2021/05/27 04:21:59;;;;;;;3.17;1.00;;;15.00;89.90;22.70;99477.00;;;;5069364;28;20455;-75
2021/05/27 04:24:24;;;;;;;3.10;1.10;;;15.00;90.00;22.60;99470.00;;;;5069810;28;20476;-74
2021/05/27 04:26:50;;;;;;;2.90;0.90;;;15.00;90.00;22.60;99482.00;;;;5052518;28;20685;-74
2021/05/27 04:29:16;;;;;;;3.13;1.00;;;15.00;90.00;22.70;99486.00;;;;5069176;28;20291;-75
2021/05/27 04:31:42;;;;;;;3.40;1.03;;;15.00;89.90;22.60;99479.00;;;;5052020;28;20209;-74
2021/05/27 04:34:09;;;;;;;3.20;1.00;;;15.00;90.00;22.60;99481.00;;;;5068808;28;20216;-75
2021/05/27 04:36:35;;;;;;;4.20;1.43;;;15.00;90.00;22.60;99482.00;;;;5052015;28;20459;-75
2021/05/27 04:39:01;;;;;;;2.93;0.80;;;15.00;90.00;22.60;99502.00;;;;5035326;28;20481;-75
2021/05/27 04:41:26;;;;;;;3.10;1.00;;;15.00;90.00;22.60;99496.00;;;;5035297;28;20690;-76
2021/05/27 04:43:55;;;;;;;3.37;1.10;;;15.00;90.00;22.70;99490.00;;;;5052292;28;20181;-75
2021/05/27 04:46:21;;;;;;;3.10;1.07;;;15.00;90.00;22.50;99495.00;;;;5068508;28;20205;-76
2021/05/27 04:48:47;;;;;;;3.20;1.00;;;15.00;90.00;22.80;99499.00;;;;5068830;28;20937;-76
2021/05/27 04:51:13;;;;;;;3.07;1.07;;;15.00;90.00;22.70;99497.00;;;;5051842;28;20448;-76
2021/05/27 04:53:38;;;;;;;3.00;0.93;;;15.00;90.00;22.60;99500.00;;;;5051736;28;20285;-76
2021/05/27 04:56:05;;;;;;;3.00;0.87;;;15.00;90.00;22.80;99507.00;;;;5068653;28;20504;-76
2021/05/27 04:58:32;;;;;;;3.23;1.30;;;15.00;90.00;22.70;99507.00;;;;5052760;28;20185;-76
2021/05/27 05:00:58;;;;;;;3.30;1.10;;;15.00;90.00;22.70;99508.00;;;;5068477;28;20463;-77
2021/05/27 05:03:24;;;;;;;2.97;0.80;;;15.00;90.00;22.50;99504.00;;;;5035974;28;20401;-77
2021/05/27 05:05:50;;;;;;;3.07;1.07;;;15.00;90.00;22.70;99511.00;;;;5069097;28;20483;-77
2021/05/27 05:08:16;;;;;;;3.27;1.03;;;15.00;90.00;22.60;99504.00;;;;5052085;28;20529;-77
2021/05/27 05:10:43;;;;;;;3.30;1.20;;;15.00;90.00;22.50;99517.00;;;;5035692;28;20459;-76
2021/05/27 05:13:09;;;;;;;3.00;0.87;;;15.00;90.00;22.70;99519.00;;;;5068906;28;20212;-77
2021/05/27 05:15:39;;;;;;;3.00;0.93;;;15.00;90.00;22.80;99519.00;;;;5051109;28;20530;-77
2021/05/27 05:18:10;;;;;;;3.10;1.00;;;15.00;90.00;22.60;99513.00;;;;5068974;28;20635;-77
2021/05/27 05:20:44;;;;;;;3.03;0.90;;;15.00;90.00;22.70;99525.00;;;;5068178;28;20451;-77
2021/05/27 05:23:10;;;;;;;3.10;1.00;;;15.00;90.00;22.50;99520.00;;;;5052812;28;20439;-76
2021/05/27 05:25:37;;;;;;;3.23;0.93;;;15.00;90.00;22.60;99523.00;;;;5035616;28;20949;-76
2021/05/27 05:28:04;;;;;;;3.60;0.93;;;15.00;90.00;22.50;99533.00;;;;5051234;28;20485;-76
2021/05/27 05:30:30;;;;;;;3.27;1.30;;;15.00;90.00;22.50;99526.00;;;;5035085;28;20478;-77
2021/05/27 05:32:56;;;;;;;3.00;1.00;;;15.00;90.00;22.60;99533.00;;;;5035558;28;20435;-77
2021/05/27 05:35:22;;;;;;;3.30;0.80;;;15.00;90.00;22.60;99522.00;;;;5034528;28;21090;-76
2021/05/27 05:37:48;;;;;;;3.07;0.80;;;15.00;90.00;22.50;99520.00;;;;5035683;28;20983;-76
2021/05/27 05:40:16;;;;;;;3.53;1.07;;;15.00;90.00;22.50;99530.00;;;;5068536;28;20459;-76
2021/05/27 05:42:42;;;;;;;3.20;1.00;;;15.00;90.00;22.50;99529.00;;;;5051482;28;20440;-75
2021/05/27 05:45:10;;;;;;;3.67;1.13;;;15.00;89.90;22.50;99529.00;;;;5051819;28;20791;-77
2021/05/27 05:47:36;;;;;;;3.20;0.90;;;15.00;90.00;22.40;99535.00;;;;5051870;28;20182;-76
2021/05/27 05:50:03;;;;;;;3.50;1.30;;;15.00;90.00;22.50;99539.00;;;;5067850;28;20541;-76
2021/05/27 05:52:30;;;;;;;3.13;0.90;;;15.10;90.00;22.40;99544.00;;;;5068469;28;20530;-76
2021/05/27 05:54:55;;;;;;;3.10;1.00;;;15.00;90.00;22.40;99542.00;;;;5067857;28;20475;-76
2021/05/27 05:57:21;;;;;;;3.07;0.80;;;15.10;90.00;22.50;99536.00;;;;5068646;28;20839;-76
2021/05/27 05:59:47;;;;;;;3.37;1.17;;;15.00;90.00;22.50;99525.00;;;;5067978;28;20192;-76
2021/05/27 06:02:13;;;;;;;3.30;1.10;;;15.00;90.00;22.50;99533.00;;;;5051497;28;20173;-76
2021/05/27 06:04:38;;;;;;;3.27;1.00;;;15.00;90.00;22.50;99529.00;;;;5067565;28;20560;-76
2021/05/27 06:07:04;;;;;;;3.20;1.03;;;15.00;90.00;22.50;99524.00;;;;5051309;28;20220;-76
2021/05/27 06:09:30;;;;;;;3.00;0.80;;;15.00;90.00;22.40;99519.00;;;;5067390;28;20213;-76
2021/05/27 06:11:55;;;;;;;3.13;1.00;;;15.00;90.00;22.50;99530.00;;;;5068789;28;20205;-76
2021/05/27 06:14:21;;;;;;;3.10;1.00;;;15.00;90.00;22.50;99546.00;;;;5070393;28;20209;-76
2021/05/27 06:16:47;;;;;;;3.00;1.00;;;15.00;90.00;22.60;99546.00;;;;5070771;28;20718;-77
2021/05/27 06:19:13;;;;;;;3.10;0.90;;;15.10;90.00;22.50;99550.00;;;;5038496;28;20447;-76
2021/05/27 06:21:39;;;;;;;3.10;0.93;;;15.00;90.00;22.50;99560.00;;;;5054365;28;20216;-76
2021/05/27 06:24:06;;;;;;;3.47;1.20;;;15.00;90.00;22.60;99556.00;;;;5071180;28;20589;-76
2021/05/27 06:26:33;;;;;;;3.20;1.00;;;15.00;90.00;22.50;99568.00;;;;5037865;28;20700;-76
2021/05/27 06:28:59;;;;;;;3.30;1.10;;;15.00;90.00;22.60;99577.00;;;;5071764;28;20440;-76
2021/05/27 06:31:25;;;;;;;4.00;1.13;;;15.10;90.10;22.60;99568.00;;;;5070504;28;20988;-76
2021/05/27 06:33:51;;;;;;;3.47;1.27;;;15.00;90.00;22.60;99564.00;;;;5037735;28;20220;-76
2021/05/27 06:36:17;;;;;;;3.50;1.10;;;15.00;90.00;22.60;99554.00;;;;5071071;28;20486;-76
2021/05/27 06:38:42;;;;;;;3.00;0.90;;;15.00;90.00;22.60;99521.00;;;;5054143;28;20797;-76
2021/05/27 06:41:09;;;;;;;3.30;0.90;;;15.00;90.00;22.70;99557.00;;;;5070974;28;20189;-76
2021/05/27 06:43:35;;;;;;;3.40;0.80;;;15.00;90.00;22.50;99565.00;;;;5054814;28;20182;-76
2021/05/27 06:46:01;;;;;;;3.40;1.00;;;15.00;90.10;22.60;99569.00;;;;5053403;28;20455;-76
2021/05/27 06:48:26;;;;;;;2.90;0.80;;;15.00;90.10;22.60;99567.00;;;;5037697;28;20573;-76
2021/05/27 06:50:52;;;;;;;3.27;1.10;;;15.00;90.10;22.50;99571.00;;;;5072082;28;20679;-75
2021/05/27 06:53:18;;;;;;;3.23;0.83;;;15.00;90.00;22.50;99563.00;;;;5071725;28;20318;-76
2021/05/27 06:55:45;;;;;;;3.10;1.07;;;15.00;90.00;22.40;99557.00;;;;5070719;28;20216;-75
2021/05/27 06:58:10;;;;;;;3.27;0.90;;;15.00;90.10;22.40;99557.00;;;;5070899;28;20836;-75
2021/05/27 07:00:36;;;;;;;3.10;0.90;;;15.10;90.10;22.50;99563.00;;;;5052922;28;20459;-75
2021/05/27 07:03:06;;;;;;;3.07;0.90;;;15.10;90.10;22.50;99567.00;;;;5070968;28;20451;-75
2021/05/27 07:05:33;;;;;;;3.10;1.00;;;15.00;90.10;22.70;99569.00;;;;5053640;28;20225;-75
2021/05/27 07:08:06;;;;;;;3.10;0.90;;;15.10;90.10;22.60;99561.00;;;;5023148;28;20439;-75
2021/05/27 07:10:32;;;;;;;3.70;1.20;;;15.00;90.10;22.60;99575.00;;;;5038010;28;20463;-75
2021/05/27 07:13:03;;;;;;;3.17;1.00;;;15.10;90.10;22.60;99569.00;;;;5070924;28;20447;-75
2021/05/27 07:15:29;;;;;;;3.53;1.33;;;15.10;90.10;22.70;99582.00;;;;5037680;28;20211;-75
2021/05/27 07:17:55;;;;;;;3.20;1.00;;;15.10;90.10;22.60;99578.00;;;;5070356;28;20872;-75
2021/05/27 07:20:22;;;;;;;3.60;1.00;;;15.10;90.10;22.80;99568.00;;;;5069536;28;20463;-75
2021/05/27 07:22:48;;;;;;;3.40;0.80;;;15.10;90.10;22.80;99587.00;;;;5037375;28;20632;-75
2021/05/27 07:25:15;;;;;;;3.20;0.90;;;15.10;90.10;22.70;99560.00;;;;5069739;28;20466;-75
2021/05/27 07:27:42;;;;;;;3.50;1.27;;;15.10;90.10;22.70;99561.00;;;;5053045;28;20875;-75
2021/05/27 07:30:09;;;;;;;3.00;1.00;;;15.10;90.10;22.70;99580.00;;;;5071168;28;20464;-75
2021/05/27 07:32:36;;;;;;;3.23;1.00;;;15.10;90.10;22.80;99570.00;;;;5037153;28;20756;-75
2021/05/27 07:35:04;;;;;;;3.00;0.90;;;15.10;90.10;22.90;99583.00;;;;5034319;28;20510;-75
2021/05/27 07:37:29;;;;;;;3.07;0.97;;;15.10;90.10;22.80;99575.00;;;;5049380;28;20515;-75
2021/05/27 07:39:55;;;;;;;3.87;0.90;;;15.10;90.10;22.80;99546.00;;;;5052789;28;21166;-75
2021/05/27 07:42:21;;;;;;;4.13;1.00;;;15.10;90.10;22.80;99571.00;;;;5067009;28;20193;-75
2021/05/27 07:44:47;;;;;;;3.10;1.07;;;15.10;90.10;22.70;99579.00;;;;5052004;28;20243;-75
2021/05/27 07:47:12;;;;;;;3.10;0.90;;;15.10;90.10;22.70;99585.00;;;;5069202;28;20178;-75
2021/05/27 07:49:38;;;;;;;3.10;1.07;;;15.10;90.10;22.70;99585.00;;;;5034805;28;20200;-76
2021/05/27 07:52:04;;;;;;;3.40;1.10;;;15.10;90.10;22.70;99593.00;;;;5067809;28;20204;-75
2021/05/27 07:54:30;;;;;;;3.10;1.03;;;15.10;90.10;22.80;99598.00;;;;5052431;28;20205;-75
2021/05/27 07:56:55;;;;;;;3.40;1.03;;;15.10;90.10;22.60;99584.00;;;;5033747;28;20466;-75
2021/05/27 07:59:21;;;;;;;3.10;1.00;;;15.10;90.10;22.70;99599.00;;;;5068833;28;20204;-75
2021/05/27 08:01:47;;;;;;;3.07;0.90;;;15.10;90.40;22.70;99601.00;;;;5068147;28;20409;-75
2021/05/27 08:04:13;;;;;;;3.00;1.00;;;15.10;90.10;22.50;99590.00;;;;5019213;28;20188;-75
2021/05/27 08:06:40;;;;;;;3.37;1.20;;;15.10;90.10;22.70;99594.00;;;;5068373;28;20217;-75
2021/05/27 08:09:07;;;;;;;3.10;1.00;;;15.10;90.10;22.70;99597.00;;;;5035849;28;20773;-75
2021/05/27 08:11:34;;;;;;;3.60;1.10;;;15.10;90.10;22.70;99609.00;;;;5035210;28;20455;-75
2021/05/27 08:14:00;;;;;;;3.20;1.00;;;15.10;90.10;22.70;99602.00;;;;5051691;28;20486;-75
2021/05/27 08:16:25;;;;;;;3.10;0.90;;;15.10;90.10;22.70;99603.00;;;;5050667;28;20459;-75
2021/05/27 08:18:51;;;;;;;4.33;1.30;;;15.10;90.10;22.60;99610.00;;;;5051942;28;20217;-75
2021/05/27 08:21:17;;;;;;;3.20;0.90;;;15.10;90.10;22.70;99603.00;;;;5034328;28;20193;-75
2021/05/27 08:23:44;;;;;;;3.10;0.90;;;15.10;90.10;22.60;99615.00;;;;5051803;28;20305;-75
2021/05/27 08:26:10;;;;;;;3.00;0.90;;;15.10;90.10;22.70;99622.00;;;;5052195;28;20489;-75
2021/05/27 08:28:36;;;;;;;3.10;1.10;;;15.10;90.10;22.70;99610.00;;;;5068238;28;20432;-75
2021/05/27 08:31:02;;;;;;;3.10;1.00;;;15.10;90.10;22.70;99606.00;;;;5034466;28;21010;-75
2021/05/27 08:33:28;;;;;;;3.67;1.07;;;15.10;90.10;22.70;99613.00;;;;5051690;28;20204;-75
2021/05/27 08:35:53;;;;;;;3.10;0.90;;;15.10;90.10;22.70;99611.00;;;;5050046;28;20455;-75
2021/05/27 08:38:19;;;;;;;4.10;1.30;;;15.10;90.10;22.80;99617.00;;;;5051278;28;20184;-74
2021/05/27 08:40:46;;;;;;;3.63;1.03;;;15.10;90.10;22.80;99611.00;;;;5052095;28;20282;-75
2021/05/27 08:43:12;;;;;;;3.10;1.00;;;15.10;90.10;22.90;99604.00;;;;5051133;28;20459;-75
2021/05/27 08:45:42;;;;;;;2.90;0.90;;;15.10;90.20;23.00;99608.00;;;;5034438;28;20992;-75
2021/05/27 08:48:12;;;;;;;2.93;0.80;;;15.10;90.10;22.90;99622.00;;;;5035509;28;20533;-75
2021/05/27 08:50:46;;;;;;;3.17;1.07;;;15.10;90.20;23.10;99616.00;;;;5051218;28;20542;-75
2021/05/27 08:53:17;;;;;;;3.67;1.20;;;15.10;90.20;22.90;99617.00;;;;5067460;28;20510;-75
2021/05/27 08:55:43;;;;;;;3.03;1.00;;;15.10;90.20;23.00;99622.00;;;;5034641;28;20513;-75
2021/05/27 08:58:09;;;;;;;3.20;1.10;;;15.10;90.10;22.90;99624.00;;;;5067157;28;20438;-75
2021/05/27 09:00:36;;;;;;;3.23;1.17;;;15.10;90.20;22.90;99633.00;;;;5067211;28;20463;-75
2021/05/27 09:03:05;;;;;;;4.20;1.07;;;15.10;90.20;22.90;99616.00;;;;5068136;28;20436;-75
2021/05/27 09:05:33;;;;;;;3.20;1.10;;;15.10;90.20;23.00;99628.00;;;;5051009;28;20475;-75
2021/05/27 09:08:00;;;;;;;3.90;1.10;;;15.10;90.20;23.00;99630.00;;;;5050112;28;20525;-76
2021/05/27 09:11:02;;;;;;;3.20;1.00;;;15.20;90.30;23.00;99634.00;;;;5051321;28;20462;-75
2021/05/27 09:13:28;;;;;;;3.17;0.90;;;15.10;90.20;23.10;99632.00;;;;5056066;28;20545;-76
2021/05/27 09:15:54;;;;;;;3.40;1.17;;;15.10;90.20;23.00;99636.00;;;;5050671;28;20454;-77
2021/05/27 09:18:30;;;;;;;3.40;1.30;;;15.10;90.20;23.00;99644.00;;;;5034298;28;20314;-76
2021/05/27 09:20:56;;;;;;;3.17;1.13;;;15.10;90.20;22.90;99642.00;;;;5064687;28;20454;-76
2021/05/27 09:23:22;;;;;;;3.37;1.27;;;15.10;90.20;22.80;99613.00;;;;5050094;28;20427;-76
2021/05/27 09:25:56;;;;;;;3.10;1.00;;;15.10;90.20;22.90;99630.00;;;;5067291;28;20980;-76
2021/05/27 09:28:23;;;;;;;3.37;1.10;;;15.10;90.20;22.90;99623.00;;;;5051028;28;20513;-76
2021/05/27 09:30:53;;;;;;;3.00;0.90;;;15.10;90.20;22.80;99635.00;;;;5067018;28;20454;-76
2021/05/27 09:33:46;;;;;;;3.23;1.10;;;15.10;90.30;22.80;99632.00;;;;5067128;28;20561;-76
2021/05/27 09:36:13;;;;;;;3.10;0.90;;;15.10;90.30;23.00;99632.00;;;;5053670;28;20574;-76
2021/05/27 09:38:43;;;;;;;3.00;0.90;;;15.10;90.30;22.90;99625.00;;;;5067965;28;20494;-76
2021/05/27 09:41:23;;;;;;;3.20;1.00;;;15.10;90.30;22.90;99630.00;;;;5051152;28;20820;-76
2021/05/27 09:43:53;;;;;;;3.23;1.10;;;15.10;90.30;22.90;99637.00;;;;5051393;28;20945;-76
2021/05/27 09:46:20;;;;;;;3.57;1.03;;;15.10;90.30;23.00;99622.00;;;;5051514;28;20506;-76
2021/05/27 09:48:46;;;;;;;3.23;1.03;;;15.10;90.30;23.10;99631.00;;;;5051906;28;20431;-76
2021/05/27 09:51:26;;;;;;;3.10;1.07;;;15.10;90.30;23.10;99634.00;;;;5070360;28;20562;-76
2021/05/27 09:53:53;;;;;;;3.10;1.00;;;15.10;90.40;23.00;99628.00;;;;5040739;28;20478;-76
2021/05/27 09:56:37;;;;;;;3.20;1.10;;;15.10;90.40;23.10;99633.00;;;;5070105;28;20549;-77
2021/05/27 09:59:03;;;;;;;3.40;1.10;;;15.10;90.30;23.00;99620.00;;;;5072717;28;20836;-77
2021/05/27 10:01:29;;;;;;;3.30;0.87;;;15.10;90.30;23.10;99621.00;;;;5053678;28;20989;-76
2021/05/27 10:04:15;;;;;;;3.30;1.23;;;15.10;90.30;22.90;99627.00;;;;5021125;28;20538;-76
2021/05/27 10:06:42;;;;;;;3.30;1.20;;;15.10;90.40;23.10;99637.00;;;;5038446;28;20479;-76
2021/05/27 10:09:09;;;;;;;4.03;1.10;;;15.10;90.30;23.10;99624.00;;;;5070959;28;20431;-76
2021/05/27 10:11:36;;;;;;;3.20;1.00;;;15.10;90.40;23.00;99634.00;;;;5054271;28;20451;-77
2021/05/27 10:14:02;;;;;;;3.30;1.10;;;15.10;90.30;23.00;99623.00;;;;5053118;28;20475;-76
2021/05/27 10:16:28;;;;;;;4.70;1.03;;;15.10;90.30;22.90;99634.00;;;;5053733;28;20666;-76
2021/05/27 10:18:55;;;;;;;3.10;1.00;;;15.10;90.70;22.90;99637.00;;;;5054598;28;20459;-77
2021/05/27 10:21:22;;;;;;;3.10;1.03;;;15.10;90.40;23.00;99637.00;;;;5053753;28;20643;-77
2021/05/27 10:23:49;;;;;;;3.00;0.90;;;15.10;90.40;22.80;99624.00;;;;5053971;28;20427;-76
2021/05/27 10:26:16;;;;;;;3.47;0.90;;;15.20;90.40;22.80;99638.00;;;;5037312;28;20479;-76
2021/05/27 10:28:50;;;;;;;3.07;0.87;;;15.20;90.40;22.80;99645.00;;;;5054171;28;20439;-76
2021/05/27 10:31:17;;;;;;;3.00;0.90;;;15.20;90.40;22.80;99645.00;;;;5069457;28;20550;-76
2021/05/27 10:33:43;;;;;;;3.07;1.00;;;15.20;90.40;22.90;99642.00;;;;5054191;28;20475;-76
2021/05/27 10:36:10;;;;;;;3.13;1.07;;;15.20;90.40;23.00;99653.00;;;;5069596;28;20465;-76
2021/05/27 10:41:22;;;;;;;3.40;1.03;;;15.20;90.40;23.00;99647.00;;;;5071805;28;20462;-76
2021/05/27 10:44:07;;;;;;;3.10;1.00;;;15.20;90.40;23.00;99656.00;;;;5069834;28;20443;-76
2021/05/27 10:46:42;;;;;;;3.13;1.00;;;15.20;90.40;22.90;99643.00;;;;5071772;28;20462;-76
2021/05/27 10:49:08;;;;;;;3.50;1.00;;;15.20;90.40;22.90;99625.00;;;;5071562;28;20439;-76
2021/05/27 10:51:45;;;;;;;3.00;0.90;;;15.20;90.50;22.90;99635.00;;;;5069796;28;20469;-76
2021/05/27 10:54:16;;;;;;;3.10;1.00;;;15.20;90.40;23.00;99626.00;;;;5040495;28;20303;-76
2021/05/27 10:56:46;;;;;;;3.10;1.00;;;15.20;90.40;22.90;99631.00;;;;5070078;28;20513;-76
2021/05/27 10:59:31;;;;;;;3.00;1.00;;;15.20;90.40;23.00;99631.00;;;;5052760;28;20439;-77
2021/05/27 11:01:57;;;;;;;3.00;0.90;;;15.20;90.40;22.90;99629.00;;;;5038714;28;20477;-76
2021/05/27 11:04:34;;;;;;;3.23;1.33;;;15.20;90.40;22.90;99622.00;;;;5069473;28;20431;-76
2021/05/27 11:07:10;;;;;;;2.90;0.70;;;15.20;90.50;22.80;99624.00;;;;5036295;28;20459;-76
2021/05/27 11:09:37;;;;;;;3.40;0.90;;;15.20;90.50;23.00;99630.00;;;;5069372;28;20530;-76
2021/05/27 11:12:20;;;;;;;3.00;0.90;;;15.20;90.50;23.00;99634.00;;;;5052862;28;20483;-76